createdAt,value
2017-12-26T00:00:04.603Z,8.52
2017-12-26T00:02:32.058Z,7.80
2017-12-26T00:04:59.518Z,8.02
2017-12-26T00:07:26.973Z,7.75
2017-12-26T00:09:54.438Z,7.28
2017-12-26T00:12:21.876Z,7.07
2017-12-26T00:14:49.438Z,6.70
2017-12-26T00:17:16.890Z,7.50
2017-12-26T00:19:44.349Z,6.60
2017-12-26T00:22:11.793Z,7.40
2017-12-26T00:24:39.250Z,6.75
2017-12-26T00:27:06.735Z,7.40
2017-12-26T00:29:34.183Z,7.70
2017-12-26T00:32:01.741Z,7.60
2017-12-26T00:34:29.187Z,7.50
2017-12-26T00:36:56.653Z,6.95
2017-12-26T00:39:24.094Z,6.43
2017-12-26T00:41:51.531Z,6.10
2017-12-26T00:44:19.035Z,6.00
2017-12-26T00:46:46.478Z,5.90
2017-12-26T00:49:13.913Z,5.97
2017-12-26T00:51:41.338Z,6.10
2017-12-26T00:54:09.527Z,5.12
2017-12-26T00:56:37.005Z,5.00
2017-12-26T00:59:04.431Z,5.43
2017-12-26T01:01:32.631Z,4.77
2017-12-26T01:04:00.055Z,5.25
2017-12-26T01:06:28.389Z,5.57
2017-12-26T01:08:55.954Z,6.20
2017-12-26T01:11:23.419Z,6.12
2017-12-26T01:13:50.843Z,5.60
2017-12-26T01:16:18.272Z,5.32
2017-12-26T01:18:45.694Z,5.37
2017-12-26T01:21:13.130Z,5.10
2017-12-26T01:23:40.586Z,5.57
2017-12-26T01:26:08.054Z,5.20
2017-12-26T01:28:35.480Z,5.37
2017-12-26T01:31:02.915Z,4.80
2017-12-26T01:33:30.398Z,4.82
2017-12-26T01:35:57.836Z,5.30
2017-12-26T01:38:25.263Z,5.10
2017-12-26T01:40:53.486Z,5.20
2017-12-26T01:43:20.918Z,5.85
2017-12-26T01:45:48.339Z,5.30
2017-12-26T01:48:16.529Z,5.75
2017-12-26T01:50:43.954Z,5.78
2017-12-26T01:53:11.482Z,5.50
2017-12-26T01:55:39.054Z,5.20
2017-12-26T01:58:07.638Z,5.28
2017-12-26T02:00:35.069Z,5.60
2017-12-26T02:03:02.505Z,5.60
2017-12-26T02:05:31.524Z,5.60
2017-12-26T02:07:58.990Z,5.57
2017-12-26T02:10:26.599Z,5.90
2017-12-26T02:12:53.988Z,6.45
2017-12-26T02:15:21.405Z,6.15
2017-12-26T02:17:48.840Z,5.17
2017-12-26T02:20:16.258Z,5.97
2017-12-26T02:22:43.690Z,5.70
2017-12-26T02:25:11.174Z,6.10
2017-12-26T02:27:38.634Z,5.62
2017-12-26T02:30:06.070Z,5.80
2017-12-26T02:32:33.551Z,5.55
2017-12-26T02:35:00.987Z,5.55
2017-12-26T02:37:28.414Z,5.40
2017-12-26T02:39:55.848Z,5.30
2017-12-26T02:42:23.273Z,5.55
2017-12-26T02:44:50.717Z,5.87
2017-12-26T02:47:18.158Z,5.60
2017-12-26T02:49:45.601Z,5.60
2017-12-26T02:52:13.022Z,5.70
2017-12-26T02:54:40.470Z,5.70
2017-12-26T02:57:07.886Z,5.85
2017-12-26T02:59:35.359Z,5.95
2017-12-26T03:02:02.786Z,5.43
2017-12-26T03:04:30.276Z,5.20
2017-12-26T03:06:57.700Z,5.70
2017-12-26T03:09:25.133Z,5.93
2017-12-26T03:11:53.354Z,6.03
2017-12-26T03:14:20.823Z,5.93
2017-12-26T03:16:48.249Z,6.32
2017-12-26T03:19:15.699Z,6.10
2017-12-26T03:21:43.186Z,6.55
2017-12-26T03:24:10.638Z,5.82
2017-12-26T03:26:38.102Z,6.00
2017-12-26T03:29:05.537Z,6.70
2017-12-26T03:31:33.013Z,5.93
2017-12-26T03:34:00.438Z,6.27
2017-12-26T03:36:27.862Z,6.30
2017-12-26T03:38:56.046Z,6.28
2017-12-26T03:41:24.261Z,6.20
2017-12-26T03:43:51.730Z,6.43
2017-12-26T03:46:19.178Z,6.55
2017-12-26T03:48:46.635Z,6.70
2017-12-26T03:51:14.089Z,6.60
2017-12-26T03:53:41.550Z,6.87
2017-12-26T03:56:08.981Z,6.50
2017-12-26T03:58:36.470Z,7.03
2017-12-26T04:01:03.919Z,6.72
2017-12-26T04:03:31.339Z,6.20
2017-12-26T04:05:58.779Z,7.03
2017-12-26T04:08:26.994Z,6.90
2017-12-26T04:10:54.454Z,6.37
2017-12-26T04:13:21.883Z,6.30
2017-12-26T04:15:49.381Z,6.30
2017-12-26T04:18:16.821Z,6.50
2017-12-26T04:20:44.274Z,6.62
2017-12-26T04:23:11.757Z,6.70
2017-12-26T04:25:39.175Z,7.10
2017-12-26T04:28:06.670Z,6.33
2017-12-26T04:30:34.172Z,6.72
2017-12-26T04:33:01.606Z,6.45
2017-12-26T04:35:29.029Z,7.10
2017-12-26T04:37:56.578Z,6.90
2017-12-26T04:40:24.009Z,6.78
2017-12-26T04:42:51.426Z,6.97
2017-12-26T04:45:18.858Z,6.95
2017-12-26T04:47:46.284Z,7.10
2017-12-26T04:50:13.714Z,7.40
2017-12-26T04:52:41.155Z,7.12
2017-12-26T04:55:09.486Z,7.03
2017-12-26T04:57:36.914Z,7.00
2017-12-26T05:00:04.398Z,7.47
2017-12-26T05:02:31.834Z,6.97
2017-12-26T05:04:59.257Z,7.10
2017-12-26T05:07:27.477Z,6.60
2017-12-26T05:09:54.973Z,7.00
2017-12-26T05:12:22.397Z,7.70
2017-12-26T05:14:49.834Z,7.47
2017-12-26T05:17:17.273Z,7.10
2017-12-26T05:19:44.773Z,7.05
2017-12-26T05:22:12.202Z,7.70
2017-12-26T05:24:39.650Z,7.85
2017-12-26T05:27:07.138Z,7.53
2017-12-26T05:29:34.595Z,8.10
2017-12-26T05:32:02.018Z,8.27
2017-12-26T05:34:29.522Z,8.15
2017-12-26T05:36:56.946Z,7.85
2017-12-26T05:39:24.382Z,7.80
2017-12-26T05:41:51.978Z,8.15
2017-12-26T05:44:19.410Z,7.95
2017-12-26T05:46:46.858Z,8.50
2017-12-26T05:49:14.344Z,8.05
2017-12-26T05:51:41.769Z,8.27
2017-12-26T05:54:09.197Z,9.60
2017-12-26T05:56:37.439Z,8.70
2017-12-26T05:59:04.878Z,9.18
2017-12-26T06:01:32.354Z,9.13
2017-12-26T06:03:59.802Z,9.30
2017-12-26T06:06:27.239Z,10.30
2017-12-26T06:08:54.687Z,9.83
2017-12-26T06:11:22.174Z,9.07
2017-12-26T06:13:49.610Z,10.00
2017-12-26T06:16:17.282Z,9.20
2017-12-26T06:18:44.726Z,9.67
2017-12-26T06:21:12.198Z,9.83
2017-12-26T06:23:39.622Z,9.35
2017-12-26T06:26:07.218Z,10.02
2017-12-26T06:28:34.743Z,9.60
2017-12-26T06:31:02.170Z,9.70
2017-12-26T06:33:30.358Z,9.55
2017-12-26T06:35:57.854Z,10.43
2017-12-26T06:38:25.293Z,9.27
2017-12-26T06:40:52.778Z,9.63
2017-12-26T06:43:20.220Z,9.57
2017-12-26T06:45:47.685Z,9.77
2017-12-26T06:48:15.356Z,9.90
2017-12-26T06:50:42.806Z,10.10
2017-12-26T06:53:10.293Z,9.65
2017-12-26T06:55:37.695Z,10.32
2017-12-26T06:58:05.130Z,9.68
2017-12-26T07:00:32.642Z,9.35
2017-12-26T07:03:00.098Z,10.88
2017-12-26T07:05:27.543Z,9.63
2017-12-26T07:07:54.978Z,9.70
2017-12-26T07:10:22.434Z,10.10
2017-12-26T07:12:49.853Z,9.40
2017-12-26T07:15:18.078Z,9.30
2017-12-26T07:17:45.535Z,10.23
2017-12-26T07:20:18.690Z,10.60
2017-12-26T07:22:46.301Z,9.43
2017-12-26T07:25:13.847Z,9.77
2017-12-26T07:27:41.284Z,10.27
2017-12-26T07:30:08.713Z,8.90
2017-12-26T07:32:36.155Z,9.40
2017-12-26T07:35:04.363Z,8.68
2017-12-26T07:37:32.538Z,9.48
2017-12-26T07:40:00.023Z,8.38
2017-12-26T07:42:27.481Z,9.38
2017-12-26T07:44:54.987Z,8.77
2017-12-26T07:47:22.358Z,8.18
2017-12-26T07:49:49.786Z,9.30
2017-12-26T07:52:17.983Z,9.00
2017-12-26T07:54:45.453Z,8.95
2017-12-26T07:57:12.879Z,9.13
2017-12-26T07:59:41.093Z,8.95
2017-12-26T08:02:08.525Z,8.90
2017-12-26T08:04:35.977Z,9.55
2017-12-26T08:07:03.414Z,7.90
2017-12-26T08:09:31.614Z,8.68
2017-12-26T08:11:59.116Z,8.50
2017-12-26T08:14:26.537Z,8.40
2017-12-26T08:16:53.961Z,8.80
2017-12-26T08:19:22.178Z,8.30
2017-12-26T08:21:49.638Z,8.65
2017-12-26T08:24:17.102Z,8.20
2017-12-26T08:26:44.561Z,8.20
2017-12-26T08:29:12.018Z,7.82
2017-12-26T08:31:39.530Z,8.00
2017-12-26T08:34:07.055Z,8.55
2017-12-26T08:36:34.462Z,8.10
2017-12-26T08:39:01.900Z,8.40
2017-12-26T08:41:29.397Z,8.60
2017-12-26T08:43:56.833Z,8.40
2017-12-26T08:46:24.283Z,8.80
2017-12-26T08:48:51.758Z,8.23
2017-12-26T08:51:19.187Z,8.27
2017-12-26T08:53:46.623Z,8.75
2017-12-26T08:56:14.848Z,9.00
2017-12-26T08:58:42.289Z,9.30
2017-12-26T09:01:09.767Z,8.80
2017-12-26T09:03:37.215Z,8.67
2017-12-26T09:06:04.671Z,8.82
2017-12-26T09:08:32.154Z,10.23
2017-12-26T09:10:59.578Z,9.32
2017-12-26T09:13:27.015Z,8.60
2017-12-26T09:15:55.207Z,8.48
2017-12-26T09:18:22.654Z,8.30
2017-12-26T09:20:50.082Z,8.50
2017-12-26T09:23:17.510Z,8.25
2017-12-26T09:25:44.954Z,8.68
2017-12-26T09:28:12.378Z,8.52
2017-12-26T09:30:39.818Z,9.37
2017-12-26T09:33:07.243Z,8.63
2017-12-26T09:35:34.674Z,8.65
2017-12-26T09:38:02.102Z,7.80
2017-12-26T09:40:29.540Z,8.40
2017-12-26T09:42:56.971Z,8.32
2017-12-26T09:45:24.456Z,7.68
2017-12-26T09:47:52.682Z,7.40
2017-12-26T09:50:20.158Z,7.32
2017-12-26T09:52:47.582Z,7.30
2017-12-26T09:55:15.061Z,7.05
2017-12-26T09:57:42.625Z,6.62
2017-12-26T10:00:10.054Z,6.80
2017-12-26T10:02:37.550Z,6.30
2017-12-26T10:05:04.990Z,6.00
2017-12-26T10:07:32.430Z,6.10
2017-12-26T10:09:59.906Z,6.18
2017-12-26T10:12:27.330Z,5.80
2017-12-26T10:14:54.751Z,5.65
2017-12-26T10:17:22.296Z,5.53
2017-12-26T10:19:49.711Z,5.55
2017-12-26T10:22:17.146Z,5.78
2017-12-26T10:24:44.645Z,5.32
2017-12-26T10:27:12.116Z,5.10
2017-12-26T10:29:39.555Z,6.10
2017-12-26T10:32:07.048Z,5.70
2017-12-26T10:34:34.467Z,5.10
2017-12-26T10:37:01.911Z,5.10
2017-12-26T10:39:29.338Z,4.80
2017-12-26T10:41:56.774Z,4.60
2017-12-26T10:44:24.295Z,5.00
2017-12-26T10:46:51.755Z,5.00
2017-12-26T10:49:19.194Z,5.00
2017-12-26T10:51:46.659Z,5.40
2017-12-26T10:54:14.143Z,5.45
2017-12-26T10:56:41.689Z,4.93
2017-12-26T10:59:09.188Z,5.00
2017-12-26T11:01:36.616Z,5.07
2017-12-26T11:04:04.151Z,5.10
2017-12-26T11:06:31.593Z,4.72
2017-12-26T11:08:59.020Z,4.75
2017-12-26T11:11:27.362Z,4.60
2017-12-26T11:13:54.792Z,5.05
2017-12-26T11:16:22.258Z,4.10
2017-12-26T11:18:49.685Z,4.12
2017-12-26T11:21:17.183Z,4.10
2017-12-26T11:23:44.842Z,4.40
2017-12-26T11:26:12.266Z,4.80
2017-12-26T11:28:39.703Z,4.93
2017-12-26T11:31:07.131Z,3.90
2017-12-26T11:33:34.579Z,4.40
2017-12-26T11:36:02.015Z,3.95
2017-12-26T11:38:29.473Z,4.93
2017-12-26T11:40:56.947Z,3.80
2017-12-26T11:43:24.388Z,4.20
2017-12-26T11:45:51.814Z,3.60
2017-12-26T11:48:19.303Z,4.05
2017-12-26T11:50:46.743Z,3.70
2017-12-26T11:53:14.196Z,3.50
2017-12-26T11:55:41.624Z,3.70
2017-12-26T11:58:09.219Z,3.78
2017-12-26T12:00:36.648Z,3.97
2017-12-26T12:03:04.103Z,3.87
2017-12-26T12:05:31.603Z,3.95
2017-12-26T12:07:59.055Z,4.12
2017-12-26T12:10:26.599Z,4.00
2017-12-26T12:12:54.151Z,3.87
2017-12-26T12:15:21.578Z,4.10
2017-12-26T12:17:49.070Z,4.05
2017-12-26T12:20:16.507Z,4.60
2017-12-26T12:22:43.934Z,4.90
2017-12-26T12:25:11.548Z,4.35
2017-12-26T12:27:39.206Z,3.87
2017-12-26T12:30:06.663Z,3.40
2017-12-26T12:32:34.083Z,4.40
2017-12-26T12:35:01.567Z,3.80
2017-12-26T12:37:29.031Z,3.75
2017-12-26T12:39:56.483Z,3.58
2017-12-26T12:42:23.915Z,4.00
2017-12-26T12:44:51.428Z,3.60
2017-12-26T12:47:18.959Z,3.63
2017-12-26T12:49:46.387Z,3.75
2017-12-26T12:52:13.823Z,3.60
2017-12-26T12:54:42.032Z,3.70
2017-12-26T12:57:09.479Z,4.50
2017-12-26T12:59:36.962Z,4.40
2017-12-26T13:02:04.399Z,4.87
2017-12-26T13:04:31.871Z,4.12
2017-12-26T13:06:59.311Z,4.20
2017-12-26T13:09:26.748Z,4.47
2017-12-26T13:11:54.194Z,4.45
2017-12-26T13:14:21.619Z,4.40
2017-12-26T13:16:49.070Z,4.45
2017-12-26T13:19:16.527Z,4.32
2017-12-26T13:21:43.971Z,4.85
2017-12-26T13:24:11.411Z,4.68
2017-12-26T13:26:39.817Z,4.70
2017-12-26T13:29:07.272Z,4.80
2017-12-26T13:31:34.772Z,5.00
2017-12-26T13:34:02.233Z,5.10
2017-12-26T13:36:29.729Z,5.20
2017-12-26T13:38:57.126Z,4.70
2017-12-26T13:41:24.656Z,4.60
2017-12-26T13:43:52.080Z,4.60
2017-12-26T13:46:19.506Z,4.60
2017-12-26T13:48:47.179Z,4.60
2017-12-26T13:51:14.658Z,4.90
2017-12-26T13:53:42.129Z,4.82
2017-12-26T13:56:09.629Z,4.50
2017-12-26T13:58:37.056Z,5.35
2017-12-26T14:01:04.482Z,4.80
2017-12-26T14:03:32.703Z,4.60
2017-12-26T14:06:00.154Z,4.85
2017-12-26T14:08:27.618Z,4.28
2017-12-26T14:10:55.071Z,4.18
2017-12-26T14:13:22.498Z,4.50
2017-12-26T14:15:49.934Z,4.70
2017-12-26T14:18:18.142Z,4.60
2017-12-26T14:20:45.606Z,4.40
2017-12-26T14:23:13.067Z,4.60
2017-12-26T14:25:40.505Z,4.53
2017-12-26T14:28:07.984Z,4.53
2017-12-26T14:30:35.401Z,4.90
2017-12-26T14:33:02.996Z,4.50
2017-12-26T14:35:30.445Z,5.30
2017-12-26T14:37:57.996Z,5.05
2017-12-26T14:40:25.482Z,4.82
2017-12-26T14:42:52.927Z,4.60
2017-12-26T14:45:20.347Z,4.60
2017-12-26T14:47:47.774Z,5.20
2017-12-26T14:50:15.998Z,5.60
2017-12-26T14:52:43.574Z,5.87
2017-12-26T14:55:11.026Z,6.10
2017-12-26T14:57:38.483Z,6.00
2017-12-26T15:00:05.942Z,5.60
2017-12-26T15:02:33.378Z,5.80
2017-12-26T15:05:00.828Z,5.80
2017-12-26T15:07:28.246Z,6.78
2017-12-26T15:09:56.442Z,6.25
2017-12-26T15:12:23.878Z,5.50
2017-12-26T15:14:52.110Z,6.20
2017-12-26T15:17:19.538Z,6.00
2017-12-26T15:19:47.022Z,5.70
2017-12-26T15:22:14.469Z,5.70
2017-12-26T15:24:41.898Z,5.68
2017-12-26T15:27:09.326Z,5.80
2017-12-26T15:29:36.766Z,5.37
2017-12-26T15:32:04.202Z,5.75
2017-12-26T15:34:31.635Z,5.15
2017-12-26T15:36:59.114Z,5.20
2017-12-26T15:39:26.566Z,5.33
2017-12-26T15:41:54.006Z,5.53
2017-12-26T15:44:21.569Z,5.35
2017-12-26T15:46:48.986Z,5.47
2017-12-26T15:49:17.186Z,5.57
2017-12-26T15:51:44.621Z,5.00
2017-12-26T15:54:12.818Z,5.80
2017-12-26T15:56:40.237Z,5.80
2017-12-26T15:59:08.440Z,5.90
2017-12-26T16:01:35.870Z,5.53
2017-12-26T16:04:04.112Z,7.15
2017-12-26T16:06:31.533Z,6.00
2017-12-26T16:08:58.969Z,6.60
2017-12-26T16:11:27.281Z,6.12
2017-12-26T16:13:54.730Z,6.97
2017-12-26T16:16:22.160Z,6.95
2017-12-26T16:18:50.474Z,6.70
2017-12-26T16:21:17.938Z,6.37
2017-12-26T16:23:45.370Z,6.90
2017-12-26T16:26:12.846Z,6.70
2017-12-26T16:28:40.273Z,6.37
2017-12-26T16:33:40.640Z,6.20
2017-12-26T16:36:08.097Z,6.60
2017-12-26T16:38:35.622Z,6.22
2017-12-26T16:41:03.118Z,6.68
2017-12-26T16:43:30.571Z,7.50
2017-12-26T16:45:57.985Z,7.37
2017-12-26T16:48:25.423Z,7.60
2017-12-26T16:50:53.654Z,8.52
2017-12-26T16:53:21.086Z,7.50
2017-12-26T16:55:48.505Z,7.50
2017-12-26T16:58:16.707Z,7.87
2017-12-26T17:00:44.185Z,7.22
2017-12-26T17:03:11.622Z,7.00
2017-12-26T17:05:39.119Z,7.30
2017-12-26T17:08:06.542Z,7.10
2017-12-26T17:10:33.975Z,7.80
2017-12-26T17:13:02.589Z,7.13
2017-12-26T17:15:30.031Z,7.20
2017-12-26T17:17:57.518Z,8.00
2017-12-26T17:20:24.942Z,7.70
2017-12-26T17:22:52.438Z,7.60
2017-12-26T17:25:19.869Z,6.90
2017-12-26T17:27:47.338Z,6.90
2017-12-26T17:30:14.770Z,6.75
2017-12-26T17:32:42.241Z,6.90
2017-12-26T17:35:09.709Z,6.68
2017-12-26T17:37:37.157Z,6.70
2017-12-26T17:40:04.693Z,6.10
2017-12-26T17:42:32.134Z,7.10
2017-12-26T17:45:00.454Z,6.10
2017-12-26T17:47:27.890Z,6.10
2017-12-26T17:49:55.375Z,6.18
2017-12-26T17:52:22.926Z,7.00
2017-12-26T17:54:50.615Z,6.95
2017-12-26T17:57:18.150Z,6.53
2017-12-26T17:59:45.578Z,6.60
2017-12-26T18:02:13.014Z,6.60
2017-12-26T18:04:41.212Z,6.60
2017-12-26T18:07:08.642Z,6.65
2017-12-26T18:09:36.879Z,7.05
2017-12-26T18:12:04.330Z,6.43
2017-12-26T18:14:31.777Z,8.57
2017-12-26T18:16:59.229Z,7.03
2017-12-26T18:19:26.675Z,7.03
2017-12-26T18:21:54.089Z,6.67
2017-12-26T18:24:22.314Z,7.07
2017-12-26T18:26:49.865Z,7.30
2017-12-26T18:29:17.441Z,7.45
2017-12-26T18:31:44.870Z,7.50
2017-12-26T18:34:12.328Z,7.62
2017-12-26T18:36:39.930Z,7.57
2017-12-26T18:39:07.469Z,7.07
2017-12-26T18:41:34.902Z,7.75
2017-12-26T18:44:02.394Z,7.87
2017-12-26T18:46:29.845Z,7.63
2017-12-26T18:48:57.291Z,8.32
2017-12-26T18:51:24.717Z,7.43
2017-12-26T18:53:52.206Z,6.90
2017-12-26T18:56:19.632Z,7.47
2017-12-26T18:58:47.124Z,6.97
2017-12-26T19:01:14.545Z,6.47
2017-12-26T19:03:42.025Z,7.40
2017-12-26T19:06:09.482Z,6.60
2017-12-26T19:08:36.948Z,7.45
2017-12-26T19:11:04.409Z,6.55
2017-12-26T19:13:31.837Z,7.18
2017-12-26T19:15:59.273Z,6.95
2017-12-26T19:18:27.469Z,6.62
2017-12-26T19:20:54.962Z,6.43
2017-12-26T19:23:22.421Z,6.43
2017-12-26T19:25:49.872Z,5.60
2017-12-26T19:28:17.330Z,6.32
2017-12-26T19:30:44.773Z,5.30
2017-12-26T19:33:12.197Z,6.87
2017-12-26T19:35:40.398Z,7.15
2017-12-26T19:38:07.822Z,6.37
2017-12-26T19:40:36.053Z,6.07
2017-12-26T19:43:03.457Z,7.22
2017-12-26T19:45:31.686Z,6.87
2017-12-26T19:47:59.125Z,6.37
2017-12-26T19:50:26.548Z,6.60
2017-12-26T19:52:54.042Z,4.90
2017-12-26T19:55:21.500Z,5.40
2017-12-26T19:57:48.929Z,5.35
2017-12-26T20:00:16.413Z,6.90
2017-12-26T20:02:43.857Z,5.65
2017-12-26T20:05:11.336Z,4.97
2017-12-26T20:07:38.776Z,4.30
2017-12-26T20:10:06.211Z,4.82
2017-12-26T20:12:33.702Z,4.70
2017-12-26T20:15:01.123Z,4.80
2017-12-26T20:17:28.572Z,5.05
2017-12-26T20:19:56.061Z,4.80
2017-12-26T20:22:23.513Z,6.37
2017-12-26T20:24:51.095Z,4.72
2017-12-26T20:27:18.522Z,5.22
2017-12-26T20:29:45.957Z,5.80
2017-12-26T20:32:14.158Z,5.03
2017-12-26T20:34:41.629Z,6.20
2017-12-26T20:37:09.062Z,5.83
2017-12-26T20:39:36.490Z,6.00
2017-12-26T20:42:04.705Z,5.20
2017-12-26T20:44:32.142Z,5.37
2017-12-26T20:46:59.609Z,6.15
2017-12-26T20:49:27.048Z,5.70
2017-12-26T20:51:54.477Z,6.28
2017-12-26T20:54:22.714Z,6.90
2017-12-26T20:56:50.290Z,6.80
2017-12-26T20:59:17.718Z,6.50
2017-12-26T21:01:45.150Z,7.50
2017-12-26T21:04:12.580Z,7.60
2017-12-26T21:06:40.788Z,8.00
2017-12-26T21:09:08.273Z,7.40
2017-12-26T21:11:35.733Z,8.10
2017-12-26T21:14:03.178Z,8.20
2017-12-26T21:16:30.602Z,7.80
2017-12-26T21:18:58.098Z,8.10
2017-12-26T21:21:25.519Z,8.90
2017-12-26T21:23:52.945Z,8.73
2017-12-26T21:26:21.247Z,8.30
2017-12-26T21:28:48.681Z,8.88
2017-12-26T21:31:16.867Z,8.80
2017-12-26T21:33:44.297Z,8.37
2017-12-26T21:36:11.717Z,8.60
2017-12-26T21:38:39.157Z,8.48
2017-12-26T21:41:06.630Z,8.85
2017-12-26T21:43:34.057Z,9.00
2017-12-26T21:46:01.491Z,8.50
2017-12-26T21:48:29.693Z,8.98
2017-12-26T21:50:57.195Z,8.73
2017-12-26T21:53:24.633Z,8.95
2017-12-26T21:55:52.066Z,8.10
2017-12-26T21:58:19.500Z,8.47
2017-12-26T22:00:46.993Z,8.20
2017-12-26T22:03:14.432Z,9.23
2017-12-26T22:05:41.869Z,8.27
2017-12-26T22:08:09.361Z,8.07
2017-12-26T22:10:36.873Z,8.70
2017-12-26T22:13:04.303Z,8.07
2017-12-26T22:15:31.854Z,8.65
2017-12-26T22:17:59.310Z,7.85
2017-12-26T22:20:26.744Z,8.25
2017-12-26T22:22:54.222Z,7.65
2017-12-26T22:25:21.686Z,7.57
2017-12-26T22:27:49.237Z,8.07
2017-12-26T22:30:16.698Z,7.75
2017-12-26T22:32:44.149Z,7.62
2017-12-26T22:35:11.815Z,6.80
2017-12-26T22:37:39.247Z,7.40
2017-12-26T22:40:06.674Z,6.47
2017-12-26T22:42:34.277Z,7.10
2017-12-26T22:45:01.694Z,6.70
2017-12-26T22:47:29.121Z,7.55
2017-12-26T22:49:56.553Z,6.95
2017-12-26T22:52:23.981Z,6.80
2017-12-26T22:54:51.430Z,6.60
2017-12-26T22:57:18.837Z,6.90
2017-12-26T22:59:46.282Z,7.40
2017-12-26T23:02:13.730Z,6.80
2017-12-26T23:04:41.165Z,7.30
2017-12-26T23:07:08.608Z,7.15
2017-12-26T23:09:36.073Z,7.60
2017-12-26T23:12:03.532Z,7.40
2017-12-26T23:14:36.739Z,6.93
2017-12-26T23:17:09.949Z,6.90
2017-12-26T23:19:43.166Z,7.40
2017-12-26T23:22:11.372Z,7.00
2017-12-26T23:24:44.582Z,7.30
2017-12-26T23:27:17.730Z,7.15
2017-12-26T23:30:03.857Z,7.10
2017-12-26T23:32:37.013Z,6.80
2017-12-26T23:35:10.173Z,7.53
2017-12-26T23:37:43.389Z,6.97
2017-12-26T23:40:16.565Z,6.95
2017-12-26T23:42:49.801Z,6.80
2017-12-26T23:45:22.881Z,6.80
2017-12-26T23:47:56.945Z,6.90
2017-12-26T23:50:30.821Z,6.50
2017-12-26T23:53:03.925Z,6.50
2017-12-26T23:55:37.131Z,6.90
2017-12-26T23:58:10.413Z,5.90
